This is the latest recevied weather packets stored in our database for station/object K1BES. If no packets are shown the sender has not sent any weather packets the latest 10 day(s).
| Time | Temp. | Humidity | Pressure | Rain* | Wind** | Luminosity | Snow |
|---|---|---|---|---|---|---|---|
| 1787926714 | 33.89° C | 56% | 1020.1 hPa | 0 mm | - | 576 W/m² | - |
| 1787926413 | 33.33° C | 57% | 1020 hPa | 0 mm | - | 556 W/m² | - |
| 1787926108 | 33.33° C | 56% | 1020.3 hPa | 0 mm | - | 537 W/m² | - |
| 1787925807 | 33.33° C | 58% | 1019.9 hPa | 0 mm | - | 516 W/m² | - |
| 1787925506 | 32.78° C | 58% | 1020 hPa | 0 mm | - | 497 W/m² | - |
| 1787925201 | 32.78° C | 59% | 1020.1 hPa | 0 mm | - | 477 W/m² | - |
| 1787924900 | 32.22° C | 60% | 1020.1 hPa | 0 mm | - | 458 W/m² | - |
| 1787924595 | 32.78° C | 60% | 1020.1 hPa | 0 mm | - | 436 W/m² | - |
| 1787924290 | 32.22° C | 60% | 1020.1 hPa | 0 mm | - | 416 W/m² | - |
| 1787923986 | 31.67° C | 63% | 1020.2 hPa | 0 mm | - | 394 W/m² | - |
| 1787923685 | 31.67° C | 65% | 1019.7 hPa | 0 mm | - | 374 W/m² | - |
| 1787923381 | 31.67° C | 64% | 1019.9 hPa | 0 mm | - | 176 W/m² | - |
| 1787923075 | 31.67° C | 65% | 1019.9 hPa | 0 mm | - | 163 W/m² | - |
| 1787922770 | 31.11° C | 67% | 1019.9 hPa | 0 mm | - | 250 W/m² | - |
| 1787922469 | 30.56° C | 68% | 1019.6 hPa | 0 mm | - | 225 W/m² | - |
| 1787922168 | 30.56° C | 69% | 1019.7 hPa | 0 mm | - | 262 W/m² | - |
| 1787921866 | 30.56° C | 69% | 1019.7 hPa | 0 mm | - | 65 W/m² | - |
| 1787921561 | 31.11° C | 70% | 1019.7 hPa | 0 mm | - | 215 W/m² | - |
| 1787921255 | 30.56° C | 71% | 1019.6 hPa | 0 mm | - | 176 W/m² | - |
| 1787920952 | 30° C | 72% | 1019.5 hPa | 0 mm | - | 120 W/m² | - |
| 1787920647 | 29.44° C | 75% | 1019.4 hPa | 0 mm | - | 104 W/m² | - |
| 1787920346 | 28.89° C | 77% | 1019.6 hPa | 0 mm | - | 135 W/m² | - |
| 1787920043 | 27.78° C | 80% | 1019.5 hPa | 0 mm | - | 136 W/m² | - |
| 1787919739 | 27.22° C | 84% | 1019.4 hPa | 0 mm | - | 101 W/m² | - |
| 1787919437 | 26.11° C | 87% | 1019.5 hPa | 0 mm | - | 66 W/m² | - |
* Rain latest hour (hover to see other rain measurements)
** Current wind speed in m/s (hover to see current wind gust speed)